createdAt,value
2023-05-08T00:01:54.146Z,22.73
2023-05-08T00:06:57.239Z,19.57
2023-05-08T00:12:00.268Z,18.13
2023-05-08T00:17:03.806Z,18.93
2023-05-08T00:22:07.061Z,17.47
2023-05-08T00:27:10.219Z,27.17
2023-05-08T00:32:13.442Z,27.23
2023-05-08T00:37:16.796Z,23.70
2023-05-08T00:42:19.973Z,18.27
2023-05-08T00:47:23.884Z,18.60
2023-05-08T00:52:29.976Z,18.80
2023-05-08T00:57:37.150Z,18.53
2023-05-08T01:02:41.494Z,20.17
2023-05-08T01:07:45.498Z,17.83
2023-05-08T01:13:00.400Z,17.93
2023-05-08T01:18:12.842Z,16.10
2023-05-08T01:23:44.433Z,15.90
2023-05-08T01:29:12.235Z,14.70
2023-05-08T01:34:25.430Z,13.40
2023-05-08T01:39:58.132Z,13.63
2023-05-08T01:45:05.546Z,13.00
2023-05-08T01:50:20.044Z,11.80
2023-05-08T01:55:31.865Z,13.43
2023-05-08T02:00:35.092Z,15.23
2023-05-08T02:05:39.169Z,16.27
2023-05-08T02:10:43.739Z,15.30
2023-05-08T02:15:49.472Z,15.20
2023-05-08T02:20:54.343Z,13.93
2023-05-08T02:25:58.566Z,14.03
2023-05-08T02:31:03.103Z,13.67
2023-05-08T02:36:07.741Z,14.10
2023-05-08T02:41:12.702Z,12.83
2023-05-08T02:46:46.700Z,12.40
2023-05-08T02:51:56.109Z,14.23
2023-05-08T02:57:06.837Z,13.33
2023-05-08T03:02:15.462Z,13.50
2023-05-08T03:07:22.206Z,12.23
2023-05-08T03:12:29.413Z,11.47
2023-05-08T03:17:35.620Z,11.80
2023-05-08T03:22:40.434Z,13.10
2023-05-08T03:27:45.371Z,14.03
2023-05-08T03:32:50.059Z,13.47
2023-05-08T03:37:54.542Z,14.80
2023-05-08T03:42:59.187Z,20.07
2023-05-08T03:48:04.308Z,27.83
2023-05-08T03:53:07.590Z,33.60
2023-05-08T03:58:29.736Z,32.67
2023-05-08T04:03:48.042Z,27.03
2023-05-08T04:09:03.238Z,23.53
2023-05-08T04:14:08.714Z,15.23
2023-05-08T04:19:17.800Z,13.03
2023-05-08T04:24:22.249Z,13.40
2023-05-08T04:29:25.975Z,12.73
2023-05-08T04:34:29.758Z,9.57
2023-05-08T04:39:32.843Z,10.20
2023-05-08T04:44:35.877Z,11.67
2023-05-08T04:49:38.847Z,11.80
2023-05-08T04:54:41.888Z,13.77
2023-05-08T04:59:45.016Z,12.40
2023-05-08T05:04:47.969Z,10.50
2023-05-08T05:09:51.046Z,11.80
2023-05-08T05:14:54.020Z,11.47
2023-05-08T05:19:57.684Z,12.40
2023-05-08T05:25:00.806Z,12.93
2023-05-08T05:30:04.175Z,13.00
2023-05-08T05:35:08.158Z,12.90
2023-05-08T05:40:13.580Z,14.83
2023-05-08T05:45:16.600Z,14.67
2023-05-08T05:50:20.191Z,16.30
2023-05-08T05:55:23.490Z,15.97
2023-05-08T06:00:26.938Z,15.77
2023-05-08T06:05:30.229Z,15.07
2023-05-08T06:10:33.470Z,16.03
2023-05-08T06:15:36.602Z,15.80
2023-05-08T06:20:39.676Z,13.67
2023-05-08T06:25:42.712Z,14.53
2023-05-08T06:30:45.799Z,13.33
2023-05-08T06:35:49.201Z,8.47
2023-05-08T06:40:52.488Z,6.57
2023-05-08T06:45:55.672Z,6.30
2023-05-08T06:50:59.171Z,5.27
2023-05-08T06:56:02.093Z,4.33
2023-05-08T07:01:05.312Z,4.40
2023-05-08T07:06:12.331Z,2.30
2023-05-08T07:11:15.593Z,2.40
2023-05-08T07:16:19.004Z,2.40
2023-05-08T07:21:22.152Z,2.40
2023-05-08T07:26:25.157Z,2.17
2023-05-08T07:31:28.218Z,2.40
2023-05-08T07:36:31.391Z,2.93
2023-05-08T07:41:35.311Z,2.63
2023-05-08T07:46:39.564Z,3.23
2023-05-08T07:51:42.528Z,2.20
2023-05-08T07:56:45.597Z,2.50
2023-05-08T08:01:48.740Z,2.50
2023-05-08T08:06:51.998Z,2.63
2023-05-08T08:11:55.137Z,3.10
2023-05-08T08:16:58.186Z,2.70
2023-05-08T08:22:01.442Z,3.40
2023-05-08T08:27:10.769Z,3.37
2023-05-08T08:32:16.620Z,3.30
2023-05-08T08:37:19.807Z,3.33
2023-05-08T08:42:23.874Z,3.63
2023-05-08T08:47:32.273Z,4.20
2023-05-08T08:53:06.580Z,3.67
2023-05-08T08:58:44.064Z,3.97
2023-05-08T09:03:50.081Z,4.33
2023-05-08T09:08:57.240Z,3.90
2023-05-08T09:14:00.333Z,4.63
2023-05-08T09:19:04.582Z,4.10
2023-05-08T09:24:08.170Z,4.63
2023-05-08T09:29:19.257Z,4.27
2023-05-08T09:34:29.335Z,3.90
2023-05-08T09:39:33.635Z,4.27
2023-05-08T09:44:50.120Z,4.10
2023-05-08T09:50:06.772Z,3.60
2023-05-08T09:55:11.170Z,3.50
2023-05-08T10:00:15.058Z,4.67
2023-05-08T10:05:24.614Z,3.77
2023-05-08T10:10:29.550Z,3.03
2023-05-08T10:15:35.493Z,3.03
2023-05-08T10:20:45.552Z,3.42
2023-05-08T10:25:52.724Z,3.25
2023-05-08T10:31:01.850Z,3.03
2023-05-08T10:36:07.235Z,3.50
2023-05-08T10:41:12.025Z,3.67
2023-05-08T10:46:49.766Z,3.37
2023-05-08T10:52:10.864Z,4.00
2023-05-08T10:57:13.971Z,3.00
2023-05-08T11:02:37.435Z,3.80
2023-05-08T11:07:58.018Z,3.20
2023-05-08T11:13:02.113Z,3.00
2023-05-08T11:18:09.311Z,2.83
2023-05-08T11:23:29.227Z,3.35
2023-05-08T11:28:40.441Z,3.00
2023-05-08T11:33:43.321Z,2.83
2023-05-08T11:39:09.783Z,2.20
2023-05-08T11:44:24.026Z,2.33
2023-05-08T11:49:29.802Z,2.28
2023-05-08T11:54:34.124Z,2.60
2023-05-08T11:59:37.911Z,3.10
2023-05-08T12:04:46.010Z,2.20
2023-05-08T12:09:49.154Z,2.45
2023-05-08T12:14:52.509Z,3.55
2023-05-08T12:19:56.875Z,2.63
2023-05-08T12:24:59.948Z,2.38
2023-05-08T12:30:10.577Z,2.88
2023-05-08T12:35:14.514Z,2.72
2023-05-08T12:40:29.100Z,3.03
2023-05-08T12:45:36.103Z,2.67
2023-05-08T12:50:41.304Z,2.97
2023-05-08T12:55:58.661Z,2.50
2023-05-08T13:01:13.819Z,2.83
2023-05-08T13:06:21.926Z,2.67
2023-05-08T13:11:34.706Z,2.33
2023-05-08T13:16:48.166Z,2.42
2023-05-08T13:21:53.122Z,2.60
2023-05-08T13:26:56.227Z,2.40
2023-05-08T13:32:00.603Z,2.13
2023-05-08T13:37:08.231Z,2.58
2023-05-08T13:42:14.360Z,2.35
2023-05-08T13:47:17.589Z,2.55
2023-05-08T13:52:20.645Z,2.53
2023-05-08T13:57:24.662Z,2.78
2023-05-08T14:02:28.446Z,2.35
2023-05-08T14:07:31.958Z,2.78
2023-05-08T14:12:36.571Z,2.58
2023-05-08T14:17:39.905Z,2.20
2023-05-08T14:22:42.828Z,2.65
2023-05-08T14:27:45.784Z,2.78
2023-05-08T14:32:49.173Z,2.08
2023-05-08T14:37:52.635Z,2.85
2023-05-08T14:42:55.944Z,2.20
2023-05-08T14:47:59.046Z,2.20
2023-05-08T14:53:02.440Z,2.15
2023-05-08T14:58:05.842Z,2.80
2023-05-08T15:03:09.117Z,2.08
2023-05-08T15:08:12.342Z,2.35
2023-05-08T15:13:15.485Z,2.55
2023-05-08T15:18:18.701Z,2.15
2023-05-08T15:23:21.936Z,2.38
2023-05-08T15:28:24.992Z,2.50
2023-05-08T15:33:27.989Z,2.20
2023-05-08T15:38:31.057Z,2.25
2023-05-08T15:43:35.230Z,2.67
2023-05-08T15:48:38.312Z,2.28
2023-05-08T15:53:41.500Z,3.13
2023-05-08T15:58:44.592Z,2.88
2023-05-08T16:03:48.124Z,2.95
2023-05-08T16:08:52.262Z,2.85
2023-05-08T16:13:55.585Z,3.15
2023-05-08T16:18:58.564Z,3.10
2023-05-08T16:24:01.963Z,2.70
2023-05-08T16:29:04.967Z,3.03
2023-05-08T16:34:07.943Z,2.60
2023-05-08T16:39:12.251Z,2.40
2023-05-08T16:44:15.477Z,2.97
2023-05-08T16:49:18.695Z,3.50
2023-05-08T16:54:21.728Z,3.47
2023-05-08T16:59:25.002Z,3.50
2023-05-08T17:04:29.703Z,3.22
2023-05-08T17:09:34.911Z,2.80
2023-05-08T17:14:40.997Z,3.35
2023-05-08T17:19:44.308Z,3.47
2023-05-08T17:24:47.858Z,3.13
2023-05-08T17:29:51.043Z,3.13
2023-05-08T17:34:54.091Z,3.20
2023-05-08T17:39:57.204Z,4.50
2023-05-08T17:45:00.264Z,5.82
2023-05-08T17:50:04.382Z,7.95
2023-05-08T17:55:08.012Z,5.68
2023-05-08T18:00:11.841Z,5.50
2023-05-08T18:05:16.210Z,9.97
2023-05-08T18:10:20.240Z,6.70
2023-05-08T18:15:23.716Z,4.87
2023-05-08T18:20:26.899Z,5.33
2023-05-08T18:25:30.566Z,6.07
2023-05-08T18:30:36.679Z,5.63
2023-05-08T18:35:40.359Z,6.20
2023-05-08T18:40:46.006Z,5.50
2023-05-08T18:45:49.088Z,7.00
2023-05-08T18:50:52.356Z,6.27
2023-05-08T18:55:55.872Z,8.37
2023-05-08T19:00:59.828Z,17.00
2023-05-08T19:06:02.910Z,10.63
2023-05-08T19:11:06.369Z,9.33
2023-05-08T19:16:09.701Z,11.37
2023-05-08T19:21:13.373Z,10.60
2023-05-08T19:26:16.875Z,9.80
2023-05-08T19:31:20.752Z,9.07
2023-05-08T19:36:25.725Z,8.50
2023-05-08T19:41:29.539Z,7.80
2023-05-08T19:46:32.719Z,8.30
2023-05-08T19:51:36.130Z,9.13
2023-05-08T19:56:40.614Z,9.43
2023-05-08T20:01:45.074Z,9.17
2023-05-08T20:06:48.661Z,7.93
2023-05-08T20:11:52.168Z,9.20
2023-05-08T20:16:55.319Z,8.07
2023-05-08T20:21:58.654Z,8.77
2023-05-08T20:27:01.678Z,11.50
2023-05-08T20:32:04.753Z,14.27
2023-05-08T20:37:07.788Z,18.40
2023-05-08T20:42:10.884Z,14.17
2023-05-08T20:47:14.011Z,11.57
2023-05-08T20:52:17.006Z,8.73
2023-05-08T20:57:20.333Z,8.83
2023-05-08T21:02:24.506Z,8.00
2023-05-08T21:07:27.859Z,8.20
2023-05-08T21:12:31.109Z,8.53
2023-05-08T21:17:34.176Z,8.80
2023-05-08T21:22:37.292Z,9.53
2023-05-08T21:27:41.152Z,10.00
2023-05-08T21:32:45.961Z,11.37
2023-05-08T21:37:54.427Z,13.47
2023-05-08T21:42:57.672Z,13.00
2023-05-08T21:48:01.374Z,13.23
2023-05-08T21:53:04.610Z,14.53
2023-05-08T21:58:07.594Z,13.77
2023-05-08T22:03:10.762Z,14.87
2023-05-08T22:08:13.954Z,14.43
2023-05-08T22:13:17.013Z,14.53
2023-05-08T22:18:20.106Z,15.27
2023-05-08T22:23:23.180Z,15.07
2023-05-08T22:28:26.773Z,15.67
2023-05-08T22:33:34.157Z,14.43
2023-05-08T22:38:37.482Z,13.83
2023-05-08T22:43:40.652Z,13.77
2023-05-08T22:48:43.665Z,14.57
2023-05-08T22:53:47.586Z,16.07
2023-05-08T22:58:50.912Z,23.93
2023-05-08T23:03:54.696Z,24.77
2023-05-08T23:08:57.706Z,33.27
2023-05-08T23:14:00.830Z,31.40
2023-05-08T23:19:04.952Z,34.43
2023-05-08T23:24:08.226Z,25.90
2023-05-08T23:29:11.171Z,27.23
2023-05-08T23:34:14.173Z,27.63
2023-05-08T23:39:17.224Z,22.10
2023-05-08T23:44:20.202Z,19.97
2023-05-08T23:49:23.369Z,20.60
2023-05-08T23:54:26.346Z,19.63
2023-05-08T23:59:29.335Z,18.87
